createdAt,value
2019-04-04T00:00:39.552Z,100011.33
2019-04-04T00:03:09.790Z,100016.98
2019-04-04T00:05:40.353Z,100015.33
2019-04-04T00:08:10.739Z,100004.46
2019-04-04T00:10:41.000Z,100012.77
2019-04-04T00:13:11.680Z,100001.00
2019-04-04T00:15:45.366Z,99996.83
2019-04-04T00:18:17.671Z,99994.02
2019-04-04T00:20:49.141Z,99998.17
2019-04-04T00:23:20.674Z,100002.92
2019-04-04T00:25:52.866Z,99989.30
2019-04-04T00:28:23.664Z,99993.35
2019-04-04T00:30:55.818Z,100008.91
2019-04-04T00:33:26.370Z,100008.08
2019-04-04T00:36:06.379Z,99996.52
2019-04-04T00:38:44.184Z,99998.44
2019-04-04T00:41:16.374Z,99999.55
2019-04-04T00:43:51.865Z,100001.09
2019-04-04T00:46:26.484Z,99996.05
2019-04-04T00:48:57.079Z,99996.07
2019-04-04T00:51:34.008Z,99995.84
2019-04-04T00:54:04.991Z,99997.31
2019-04-04T00:56:41.222Z,99996.37
2019-04-04T00:59:11.837Z,99996.55
2019-04-04T01:01:44.024Z,100000.06
2019-04-04T01:04:14.802Z,99995.25
2019-04-04T01:06:50.842Z,99995.25
2019-04-04T01:09:21.075Z,99983.53
2019-04-04T01:12:05.355Z,99983.77
2019-04-04T01:14:37.168Z,99991.47
2019-04-04T01:17:19.450Z,99984.71
2019-04-04T01:19:49.789Z,99983.74
2019-04-04T01:22:20.438Z,99980.05
2019-04-04T01:24:50.749Z,99980.24
2019-04-04T01:27:20.988Z,99985.87
2019-04-04T01:29:53.884Z,99984.13
2019-04-04T01:32:24.547Z,99994.41
2019-04-04T01:34:55.271Z,99976.92
2019-04-04T01:37:27.192Z,99971.30
2019-04-04T01:40:12.133Z,99971.73
2019-04-04T01:42:42.575Z,99972.20
2019-04-04T01:45:19.865Z,99970.41
2019-04-04T01:47:51.674Z,99978.39
2019-04-04T01:50:24.882Z,99970.69
2019-04-04T01:52:59.983Z,99969.89
2019-04-04T01:55:29.796Z,99969.80
2019-04-04T01:57:59.876Z,99969.11
2019-04-04T02:00:30.522Z,99960.60
2019-04-04T02:03:16.512Z,99966.41
2019-04-04T02:05:46.981Z,99970.30
2019-04-04T02:08:17.542Z,99964.53
2019-04-04T02:10:47.844Z,99969.00
2019-04-04T02:13:18.404Z,99969.55
2019-04-04T02:15:48.700Z,99965.11
2019-04-04T02:18:19.290Z,99963.37
2019-04-04T02:20:58.788Z,99972.48
2019-04-04T02:23:38.292Z,99958.19
2019-04-04T02:26:08.682Z,99955.31
2019-04-04T02:28:40.011Z,99961.84
2019-04-04T02:31:11.956Z,99962.26
2019-04-04T02:33:42.590Z,99947.58
2019-04-04T02:36:16.397Z,99946.70
2019-04-04T02:39:07.846Z,99937.23
2019-04-04T02:41:38.251Z,99942.09
2019-04-04T02:44:09.329Z,99943.44
2019-04-04T02:46:44.524Z,99939.44
2019-04-04T02:49:12.438Z,99938.95
2019-04-04T02:51:42.719Z,99931.77
2019-04-04T02:54:13.021Z,99939.49
2019-04-04T02:56:43.225Z,99924.89
2019-04-04T02:59:13.812Z,99933.11
2019-04-04T03:01:44.255Z,99920.13
2019-04-04T03:04:14.832Z,99917.84
2019-04-04T03:06:45.113Z,99911.86
2019-04-04T03:09:15.325Z,99912.81
2019-04-04T03:11:45.605Z,99911.00
2019-04-04T03:14:16.235Z,99916.63
2019-04-04T03:16:46.528Z,99910.48
2019-04-04T03:19:17.100Z,99911.73
2019-04-04T03:21:48.103Z,99913.17
2019-04-04T03:24:19.330Z,99914.98
2019-04-04T03:26:52.220Z,99912.86
2019-04-04T03:29:23.132Z,99918.66
2019-04-04T03:31:53.407Z,99905.94
2019-04-04T03:34:25.220Z,99907.73
2019-04-04T03:36:55.942Z,99909.06
2019-04-04T03:39:27.762Z,99922.91
2019-04-04T03:41:59.582Z,99919.02
2019-04-04T03:44:29.816Z,99919.16
2019-04-04T03:47:00.229Z,99919.58
2019-04-04T03:49:30.448Z,99915.27
2019-04-04T03:52:00.682Z,99913.66
2019-04-04T03:54:30.918Z,99922.59
2019-04-04T03:57:01.744Z,99919.55
2019-04-04T03:59:33.086Z,99926.80
2019-04-04T04:02:03.633Z,99929.36
2019-04-04T04:04:34.182Z,99919.88
2019-04-04T04:07:05.036Z,99924.69
2019-04-04T04:09:35.680Z,99919.53
2019-04-04T04:12:10.207Z,99924.20
2019-04-04T04:14:38.311Z,99934.70
2019-04-04T04:17:09.226Z,99932.23
2019-04-04T04:19:40.801Z,99933.00
2019-04-04T04:22:12.923Z,99930.73
2019-04-04T04:24:43.001Z,99929.61
2019-04-04T04:27:15.457Z,99929.22
2019-04-04T04:29:45.576Z,99928.41
2019-04-04T04:32:15.787Z,99933.45
2019-04-04T04:34:46.419Z,99940.34
2019-04-04T04:37:19.865Z,99950.06
2019-04-04T04:39:48.628Z,99941.25
2019-04-04T04:42:21.102Z,99941.62
2019-04-04T04:44:51.186Z,99944.97
2019-04-04T04:47:23.847Z,99932.27
2019-04-04T04:49:55.455Z,99928.60
2019-04-04T04:52:25.918Z,99925.51
2019-04-04T04:54:56.505Z,99931.50
2019-04-04T04:57:29.731Z,99918.88
2019-04-04T05:00:01.538Z,99921.66
2019-04-04T05:02:32.124Z,99930.20
2019-04-04T05:05:02.383Z,99935.45
2019-04-04T05:07:33.455Z,99920.28
2019-04-04T05:10:06.301Z,99936.30
2019-04-04T05:12:37.065Z,99939.77
2019-04-04T05:15:09.121Z,99937.02
2019-04-04T05:17:39.992Z,99930.61
2019-04-04T05:20:13.473Z,99921.23
2019-04-04T05:22:45.197Z,99919.51
2019-04-04T05:25:15.831Z,99931.10
2019-04-04T05:27:46.585Z,99920.09
2019-04-04T05:30:20.194Z,99918.63
2019-04-04T05:32:50.007Z,99918.82
2019-04-04T05:35:21.615Z,99908.61
2019-04-04T05:37:51.891Z,99915.53
2019-04-04T05:40:23.505Z,99923.02
2019-04-04T05:42:54.986Z,99923.22
2019-04-04T05:45:25.699Z,99914.27
2019-04-04T05:47:58.293Z,99918.91
2019-04-04T05:50:28.308Z,99928.89
2019-04-04T05:53:02.131Z,99921.94
2019-04-04T05:55:32.450Z,99919.72
2019-04-04T05:58:02.676Z,99913.15
2019-04-04T06:00:33.283Z,99916.55
2019-04-04T06:03:03.558Z,99920.77
2019-04-04T06:05:34.160Z,99913.88
2019-04-04T06:08:07.854Z,99921.19
2019-04-04T06:10:37.162Z,99916.94
2019-04-04T06:13:07.812Z,99919.70
2019-04-04T06:15:38.487Z,99926.45
2019-04-04T06:18:10.927Z,99919.34
2019-04-04T06:20:40.724Z,99916.19
2019-04-04T06:23:10.961Z,99910.81
2019-04-04T06:25:41.359Z,99899.03
2019-04-04T06:28:12.592Z,99907.01
2019-04-04T06:30:43.921Z,99904.19
2019-04-04T06:33:14.494Z,99900.66
2019-04-04T06:35:47.141Z,99907.26
2019-04-04T06:38:17.103Z,99891.05
2019-04-04T06:40:49.255Z,99918.88
2019-04-04T06:43:19.919Z,99903.48
2019-04-04T06:45:50.580Z,99905.77
2019-04-04T06:48:22.228Z,99902.87
2019-04-04T06:50:52.535Z,99914.50
2019-04-04T06:53:23.119Z,99910.48
2019-04-04T06:55:54.637Z,99908.67
2019-04-04T06:58:25.280Z,99905.14
2019-04-04T07:00:55.943Z,99893.63
2019-04-04T07:03:27.916Z,99901.91
2019-04-04T07:05:58.857Z,99911.00
2019-04-04T07:08:29.502Z,99910.44
2019-04-04T07:11:02.746Z,99896.43
2019-04-04T07:13:42.291Z,99907.46
2019-04-04T07:16:08.115Z,99908.82
2019-04-04T07:18:40.982Z,99893.38
2019-04-04T07:21:12.285Z,99887.22
2019-04-04T07:23:42.471Z,99875.09
2019-04-04T07:26:14.853Z,99895.64
2019-04-04T07:28:45.055Z,99882.38
2019-04-04T07:31:16.196Z,99903.91
2019-04-04T07:33:46.867Z,99905.33
2019-04-04T07:36:20.203Z,99903.95
2019-04-04T07:38:50.975Z,99897.53
2019-04-04T07:41:21.307Z,99904.05
2019-04-04T07:43:52.353Z,99901.80
2019-04-04T07:46:22.865Z,99910.15
2019-04-04T07:48:53.126Z,99905.54
2019-04-04T07:51:23.344Z,99907.25
2019-04-04T07:53:54.000Z,99910.14
2019-04-04T07:56:24.316Z,99895.19
2019-04-04T07:58:54.576Z,99910.82
2019-04-04T08:01:24.813Z,99909.94
2019-04-04T08:03:55.058Z,99902.73
2019-04-04T08:06:25.297Z,99923.05
2019-04-04T08:08:55.553Z,99909.30
2019-04-04T08:11:25.832Z,99912.26
2019-04-04T08:13:56.084Z,99912.53
2019-04-04T08:16:26.724Z,99929.82
2019-04-04T08:18:57.089Z,99857.72
2019-04-04T08:21:27.729Z,99906.89
2019-04-04T08:23:58.394Z,99930.30
2019-04-04T08:26:29.087Z,99910.39
2019-04-04T08:29:03.818Z,99919.16
2019-04-04T08:31:34.116Z,99911.25
2019-04-04T08:34:05.017Z,99921.58
2019-04-04T08:36:35.941Z,99911.64
2019-04-04T08:39:08.953Z,99900.47
2019-04-04T08:41:39.196Z,99911.28
2019-04-04T08:44:09.837Z,99915.64
2019-04-04T08:46:40.158Z,99911.31
2019-04-04T08:49:10.732Z,99913.62
2019-04-04T08:51:41.400Z,99915.58
2019-04-04T08:54:11.763Z,99918.92
2019-04-04T08:56:41.952Z,99904.89
2019-04-04T08:59:12.186Z,99911.61
2019-04-04T09:01:42.505Z,99879.83
2019-04-04T09:04:13.079Z,99895.67
2019-04-04T09:06:44.717Z,99897.95
2019-04-04T09:09:15.364Z,99904.48
2019-04-04T09:11:47.851Z,99898.36
2019-04-04T09:14:18.136Z,99882.63
2019-04-04T09:16:48.364Z,99894.03
2019-04-04T09:19:21.080Z,99869.13
2019-04-04T09:21:51.547Z,99878.75
2019-04-04T09:24:21.917Z,99882.26
2019-04-04T09:26:53.226Z,99873.75
2019-04-04T09:29:23.793Z,99865.77
2019-04-04T09:31:54.111Z,99885.15
2019-04-04T09:34:24.691Z,99867.70
2019-04-04T09:36:55.008Z,99863.48
2019-04-04T09:39:25.606Z,99863.92
2019-04-04T09:41:55.872Z,99878.23
2019-04-04T09:44:27.225Z,99875.03
2019-04-04T09:47:05.220Z,99874.56
2019-04-04T09:49:29.800Z,99867.95
2019-04-04T09:52:01.712Z,99872.28
2019-04-04T09:54:32.311Z,99866.33
2019-04-04T09:57:02.985Z,99855.70
2019-04-04T09:59:33.269Z,99853.51
2019-04-04T10:02:04.042Z,99858.41
2019-04-04T10:04:36.564Z,99852.59
2019-04-04T10:07:06.884Z,99856.82
2019-04-04T10:09:37.154Z,99849.48
2019-04-04T10:12:07.369Z,99854.77
2019-04-04T10:14:38.055Z,99838.80
2019-04-04T10:17:08.970Z,99853.41
2019-04-04T10:19:39.932Z,99841.47
2019-04-04T10:22:10.361Z,99838.91
2019-04-04T10:24:40.962Z,99835.33
2019-04-04T10:27:11.252Z,99836.09
2019-04-04T10:29:41.477Z,99837.55
2019-04-04T10:32:13.069Z,99829.75
2019-04-04T10:34:44.370Z,99837.47
2019-04-04T10:37:14.969Z,99830.54
2019-04-04T10:39:45.608Z,99822.06
2019-04-04T10:42:18.553Z,99836.95
2019-04-04T10:44:49.292Z,99833.47
2019-04-04T10:47:19.966Z,99826.92
2019-04-04T10:49:50.284Z,99826.53
2019-04-04T10:52:20.524Z,99822.70
2019-04-04T10:54:51.967Z,99827.67
2019-04-04T10:57:22.211Z,99823.80
2019-04-04T10:59:54.589Z,99818.95
2019-04-04T11:02:25.708Z,99806.48
2019-04-04T11:04:56.769Z,99811.52
2019-04-04T11:07:28.142Z,99808.92
2019-04-04T11:09:58.566Z,99808.27
2019-04-04T11:12:34.144Z,99800.69
2019-04-04T11:15:03.263Z,99801.20
2019-04-04T11:17:33.938Z,99805.50
2019-04-04T11:20:06.657Z,99811.44
2019-04-04T11:22:37.245Z,99800.70
2019-04-04T11:25:08.427Z,99795.03
2019-04-04T11:27:39.135Z,99794.33
2019-04-04T11:30:11.905Z,99796.22
2019-04-04T11:32:43.081Z,99788.66
2019-04-04T11:35:13.570Z,99787.70
2019-04-04T11:37:45.476Z,99790.34
2019-04-04T11:40:16.213Z,99771.94
2019-04-04T11:42:46.498Z,99768.42
2019-04-04T11:45:17.025Z,99777.70
2019-04-04T11:47:47.454Z,99772.69
2019-04-04T11:50:17.746Z,99771.38
2019-04-04T11:52:48.318Z,99763.24
2019-04-04T11:55:19.008Z,99775.53
2019-04-04T11:57:49.311Z,99770.05
2019-04-04T12:00:21.235Z,99778.70
2019-04-04T12:02:51.609Z,99760.38
2019-04-04T12:05:22.710Z,99766.36
2019-04-04T12:07:52.956Z,99763.55
2019-04-04T12:10:23.180Z,99748.87
2019-04-04T12:12:53.407Z,99750.17
2019-04-04T12:15:24.025Z,99760.20
2019-04-04T12:17:54.762Z,99757.59
2019-04-04T12:20:26.446Z,99751.36
2019-04-04T12:22:57.017Z,99745.84
2019-04-04T12:25:27.731Z,99743.41
2019-04-04T12:28:01.436Z,99750.55
2019-04-04T12:30:31.740Z,99752.28
2019-04-04T12:33:01.993Z,99731.02
2019-04-04T12:35:32.631Z,99729.13
2019-04-04T12:38:03.003Z,99728.67
2019-04-04T12:40:33.684Z,99723.02
2019-04-04T12:43:04.410Z,99721.91
2019-04-04T12:45:37.749Z,99730.75
2019-04-04T12:48:09.220Z,99721.13
2019-04-04T12:50:40.482Z,99719.81
2019-04-04T12:53:11.113Z,99711.25
2019-04-04T12:55:41.765Z,99723.23
2019-04-04T12:58:12.117Z,99721.75
2019-04-04T13:00:43.209Z,99705.48
2019-04-04T13:03:13.869Z,99702.23
2019-04-04T13:05:44.549Z,99703.47
2019-04-04T13:08:16.854Z,99700.78
2019-04-04T13:10:47.663Z,99699.81
2019-04-04T13:13:18.308Z,99690.94
2019-04-04T13:15:49.012Z,99692.73
2019-04-04T13:18:19.391Z,99698.49
2019-04-04T13:20:51.132Z,99696.59
2019-04-04T13:23:21.768Z,99693.49
2019-04-04T13:25:52.513Z,99699.09
2019-04-04T13:28:24.372Z,99701.78
2019-04-04T13:30:54.630Z,99699.72
2019-04-04T13:33:24.924Z,99696.60
2019-04-04T13:35:55.171Z,99686.28
2019-04-04T13:38:25.882Z,99690.08
2019-04-04T13:40:59.373Z,99690.71
2019-04-04T13:43:29.749Z,99689.97
2019-04-04T13:46:00.346Z,99675.28
2019-04-04T13:48:31.049Z,99667.89
2019-04-04T13:51:01.861Z,99671.78
2019-04-04T13:53:34.761Z,99670.83
2019-04-04T13:56:07.397Z,99666.81
2019-04-04T13:58:39.551Z,99667.77
2019-04-04T14:01:10.188Z,99665.00
2019-04-04T14:03:40.554Z,99666.95
2019-04-04T14:06:11.512Z,99670.91
2019-04-04T14:08:42.231Z,99671.07
2019-04-04T14:11:12.884Z,99652.34
2019-04-04T14:13:44.322Z,99653.87
2019-04-04T14:16:17.915Z,99653.29
2019-04-04T14:18:48.824Z,99650.52
2019-04-04T14:21:19.847Z,99646.95
2019-04-04T14:23:52.980Z,99649.43
2019-04-04T14:26:23.003Z,99652.27
2019-04-04T14:28:53.545Z,99644.70
2019-04-04T14:31:24.343Z,99643.38
2019-04-04T14:33:55.049Z,99647.03
2019-04-04T14:36:26.107Z,99637.99
2019-04-04T14:38:57.723Z,99635.64
2019-04-04T14:41:27.977Z,99646.20
2019-04-04T14:44:00.696Z,99644.81
2019-04-04T14:46:31.540Z,99641.13
2019-04-04T14:49:02.843Z,99637.81
2019-04-04T14:51:33.717Z,99638.02
2019-04-04T14:54:04.747Z,99633.35
2019-04-04T14:56:36.105Z,99621.30
2019-04-04T14:59:06.962Z,99633.19
2019-04-04T15:01:39.271Z,99627.64
2019-04-04T15:04:10.731Z,99626.01
2019-04-04T15:06:41.010Z,99624.69
2019-04-04T15:09:11.566Z,99619.52
2019-04-04T15:11:41.774Z,99635.83
2019-04-04T15:14:12.391Z,99624.05
2019-04-04T15:16:43.055Z,99625.27
2019-04-04T15:19:13.349Z,99619.25
2019-04-04T15:21:43.597Z,99629.28
2019-04-04T15:24:14.162Z,99624.79
2019-04-04T15:26:44.475Z,99624.26
2019-04-04T15:29:16.375Z,99639.94
2019-04-04T15:31:46.704Z,99630.53
2019-04-04T15:34:16.923Z,99628.09
2019-04-04T15:36:48.500Z,99611.20
2019-04-04T15:39:19.029Z,99623.82
2019-04-04T15:41:49.714Z,99626.26
2019-04-04T15:44:20.018Z,99625.08
2019-04-04T15:46:50.231Z,99631.88
2019-04-04T15:49:20.703Z,99623.80
2019-04-04T15:51:50.987Z,99624.20
2019-04-04T15:54:21.192Z,99616.72
2019-04-04T15:56:51.865Z,99617.33
2019-04-04T15:59:22.243Z,99621.55
2019-04-04T16:01:52.526Z,99623.91
2019-04-04T16:04:22.750Z,99619.44
2019-04-04T16:06:52.989Z,99618.59
2019-04-04T16:09:23.225Z,99618.16
2019-04-04T16:11:53.820Z,99622.96
2019-04-04T16:14:24.535Z,99620.42
2019-04-04T16:16:54.846Z,99628.00
2019-04-04T16:19:25.096Z,99612.03
2019-04-04T16:21:56.533Z,99620.98
2019-04-04T16:24:27.221Z,99621.27
2019-04-04T16:26:58.640Z,99624.84
2019-04-04T16:29:29.404Z,99623.81
2019-04-04T16:32:00.164Z,99625.52
2019-04-04T16:34:30.974Z,99626.78
2019-04-04T16:37:01.259Z,99634.86
2019-04-04T16:39:31.577Z,99634.30
2019-04-04T16:42:02.770Z,99640.13
2019-04-04T16:44:33.616Z,99630.34
2019-04-04T16:47:04.106Z,99638.69
2019-04-04T16:49:38.321Z,99631.64
2019-04-04T16:52:09.125Z,99637.08
2019-04-04T16:54:39.543Z,99638.02
2019-04-04T16:57:09.861Z,99633.67
2019-04-04T16:59:40.164Z,99634.41
2019-04-04T17:02:10.767Z,99639.45
2019-04-04T17:04:41.184Z,99640.67
2019-04-04T17:07:13.022Z,99632.73
2019-04-04T17:09:43.318Z,99641.84
2019-04-04T17:12:15.201Z,99646.14
2019-04-04T17:14:46.471Z,99645.00
2019-04-04T17:17:17.184Z,99644.44
2019-04-04T17:19:47.935Z,99641.11
2019-04-04T17:22:18.422Z,99646.70
2019-04-04T17:24:50.496Z,99652.90
2019-04-04T17:27:20.934Z,99645.48
2019-04-04T17:29:52.251Z,99654.38
2019-04-04T17:32:23.645Z,99659.34
2019-04-04T17:34:54.837Z,99659.33
2019-04-04T17:37:25.734Z,99660.70
2019-04-04T17:39:56.872Z,99665.89
2019-04-04T17:42:31.432Z,99671.08
2019-04-04T17:45:02.247Z,99669.29
2019-04-04T17:47:32.905Z,99677.95
2019-04-04T17:50:04.316Z,99671.94
2019-04-04T17:52:35.323Z,99681.66
2019-04-04T17:55:08.084Z,99683.12
2019-04-04T17:57:39.875Z,99685.70
2019-04-04T18:00:14.069Z,99680.72
2019-04-04T18:02:44.754Z,99687.77
2019-04-04T18:05:15.934Z,99682.21
2019-04-04T18:07:46.169Z,99688.38
2019-04-04T18:10:18.550Z,99692.11
2019-04-04T18:12:49.377Z,99694.96
2019-04-04T18:15:20.080Z,99700.52
2019-04-04T18:17:51.412Z,99705.98
2019-04-04T18:20:22.481Z,99712.33
2019-04-04T18:22:52.802Z,99707.38
2019-04-04T18:25:24.459Z,99723.34
2019-04-04T18:27:54.826Z,99705.98
2019-04-04T18:30:25.410Z,99716.15
2019-04-04T18:32:57.318Z,99718.16
2019-04-04T18:35:28.802Z,99711.83
2019-04-04T18:37:59.857Z,99727.17
2019-04-04T18:40:30.337Z,99729.13
2019-04-04T18:43:00.907Z,99725.04
2019-04-04T18:45:31.242Z,99716.62
2019-04-04T18:48:01.460Z,99723.05
2019-04-04T18:50:32.102Z,99722.81
2019-04-04T18:53:02.794Z,99734.97
2019-04-04T18:55:33.423Z,99724.84
2019-04-04T18:58:04.121Z,99730.08
2019-04-04T19:00:34.500Z,99726.69
2019-04-04T19:03:06.595Z,99731.43
2019-04-04T19:05:37.283Z,99722.08
2019-04-04T19:08:08.530Z,99718.16
2019-04-04T19:10:39.237Z,99730.75
2019-04-04T19:13:09.506Z,99725.88
2019-04-04T19:15:40.170Z,99731.72
2019-04-04T19:18:13.147Z,99725.16
2019-04-04T19:20:43.396Z,99734.65
2019-04-04T19:23:16.020Z,99732.45
2019-04-04T19:25:46.459Z,99739.80
2019-04-04T19:28:17.588Z,99740.65
2019-04-04T19:30:48.138Z,99742.95
2019-04-04T19:33:18.493Z,99744.21
2019-04-04T19:35:50.098Z,99741.66
2019-04-04T19:38:20.864Z,99733.27
2019-04-04T19:40:53.257Z,99736.74
2019-04-04T19:43:24.484Z,99744.80
2019-04-04T19:45:55.616Z,99737.80
2019-04-04T19:48:26.467Z,99732.56
2019-04-04T19:50:58.798Z,99739.23
2019-04-04T19:53:29.588Z,99739.50
2019-04-04T19:55:59.797Z,99745.78
2019-04-04T19:58:30.139Z,99736.17
2019-04-04T20:01:01.098Z,99736.11
2019-04-04T20:03:31.483Z,99740.55
2019-04-04T20:06:02.149Z,99742.41
2019-04-04T20:08:32.439Z,99747.25
2019-04-04T20:11:02.765Z,99754.68
2019-04-04T20:13:37.574Z,99748.27
2019-04-04T20:16:12.437Z,99749.41
2019-04-04T20:18:43.574Z,99762.22
2019-04-04T20:21:15.348Z,99749.98
2019-04-04T20:23:46.050Z,99752.61
2019-04-04T20:26:16.417Z,99749.03
2019-04-04T20:28:46.630Z,99753.28
2019-04-04T20:31:16.880Z,99752.95
2019-04-04T20:33:47.121Z,99756.66
2019-04-04T20:36:17.699Z,99760.91
2019-04-04T20:38:49.598Z,99756.20
2019-04-04T20:41:20.197Z,99754.50
2019-04-04T20:43:50.499Z,99764.78
2019-04-04T20:46:21.074Z,99757.78
2019-04-04T20:48:52.931Z,99767.31
2019-04-04T20:51:24.311Z,99762.35
2019-04-04T20:53:56.424Z,99775.34
2019-04-04T20:56:26.774Z,99754.94
2019-04-04T20:58:57.025Z,99763.00
2019-04-04T21:01:28.076Z,99765.13
2019-04-04T21:03:58.640Z,99761.91
2019-04-04T21:06:29.291Z,99765.49
2019-04-04T21:08:59.995Z,99770.78
2019-04-04T21:11:30.282Z,99765.79
2019-04-04T21:14:00.483Z,99765.17
2019-04-04T21:16:30.728Z,99773.81
2019-04-04T21:19:01.201Z,99771.49
2019-04-04T21:21:31.484Z,99781.59
2019-04-04T21:24:02.068Z,99779.20
2019-04-04T21:26:32.357Z,99777.89
2019-04-04T21:29:02.705Z,99781.98
2019-04-04T21:31:32.904Z,99773.13
2019-04-04T21:34:03.133Z,99780.56
2019-04-04T21:36:33.338Z,99784.94
2019-04-04T21:39:04.712Z,99778.41
2019-04-04T21:41:35.015Z,99776.20
2019-04-04T21:44:09.169Z,99777.33
2019-04-04T21:46:37.172Z,99793.79
2019-04-04T21:49:07.568Z,99779.48
2019-04-04T21:51:38.206Z,99784.54
2019-04-04T21:54:08.851Z,99791.06
2019-04-04T21:56:39.160Z,99791.41
2019-04-04T21:59:09.614Z,99791.52
2019-04-04T22:01:40.666Z,99791.52
2019-04-04T22:04:11.313Z,99796.30
2019-04-04T22:06:41.950Z,99800.56
2019-04-04T22:09:27.183Z,99798.04
2019-04-04T22:11:57.849Z,99803.39
2019-04-04T22:14:28.159Z,99806.80
2019-04-04T22:16:58.380Z,99803.17
2019-04-04T22:19:28.618Z,99804.34
2019-04-04T22:21:59.172Z,99803.94
2019-04-04T22:24:29.828Z,99809.11
2019-04-04T22:27:00.110Z,99802.08
2019-04-04T22:29:30.685Z,99799.23
2019-04-04T22:32:01.385Z,99804.60
2019-04-04T22:34:31.725Z,99805.05
2019-04-04T22:37:01.940Z,99812.17
2019-04-04T22:39:32.632Z,99816.39
2019-04-04T22:42:05.809Z,99803.07
2019-04-04T22:44:36.480Z,99801.72
2019-04-04T22:47:06.774Z,99799.31
2019-04-04T22:49:36.995Z,99800.54
2019-04-04T22:52:07.230Z,99809.73
2019-04-04T22:54:37.803Z,99798.86
2019-04-04T22:57:08.470Z,99819.84
2019-04-04T22:59:39.099Z,99807.31
2019-04-04T23:02:09.406Z,99808.38
2019-04-04T23:04:39.959Z,99803.12
2019-04-04T23:07:10.245Z,99800.36
2019-04-04T23:09:40.491Z,99809.06
2019-04-04T23:12:11.074Z,99815.14
2019-04-04T23:14:48.107Z,99803.52
2019-04-04T23:17:13.720Z,99807.83
2019-04-04T23:19:43.953Z,99801.06
2019-04-04T23:22:14.205Z,99807.12
2019-04-04T23:24:44.816Z,99797.55
2019-04-04T23:27:15.457Z,99811.27
2019-04-04T23:29:45.756Z,99790.31
2019-04-04T23:32:16.345Z,99792.80
2019-04-04T23:34:46.694Z,99790.03
2019-04-04T23:37:16.905Z,99790.27
2019-04-04T23:39:47.117Z,99789.61
2019-04-04T23:42:17.699Z,99794.47
2019-04-04T23:44:59.875Z,99791.47
2019-04-04T23:47:20.262Z,99782.30
2019-04-04T23:49:50.593Z,99790.41
2019-04-04T23:52:21.162Z,99784.00
2019-04-04T23:54:51.445Z,99788.16
2019-04-04T23:57:22.037Z,99786.39
2019-04-04T23:59:52.706Z,99796.00
